createdAt,value
2023-05-19T00:00:55.273Z,6014.00
2023-05-19T00:01:55.476Z,5990.00
2023-05-19T00:02:55.761Z,6048.00
2023-05-19T00:03:55.777Z,6148.00
2023-05-19T00:04:56.078Z,6203.00
2023-05-19T00:05:56.173Z,6199.00
2023-05-19T00:06:56.410Z,6122.00
2023-05-19T00:07:56.502Z,6240.00
2023-05-19T00:08:56.723Z,6308.00
2023-05-19T00:09:56.898Z,6220.00
2023-05-19T00:10:57.076Z,6209.00
2023-05-19T00:11:57.256Z,6220.00
2023-05-19T00:12:58.167Z,6200.00
2023-05-19T00:13:57.477Z,6226.00
2023-05-19T00:14:57.501Z,6247.00
2023-05-19T00:15:57.651Z,6282.00
2023-05-19T00:16:57.557Z,6207.00
2023-05-19T00:17:57.543Z,6237.00
2023-05-19T00:18:57.558Z,6305.00
2023-05-19T00:19:57.573Z,6337.00
2023-05-19T00:20:57.594Z,6351.00
2023-05-19T00:21:57.617Z,6409.00
2023-05-19T00:22:57.632Z,6443.00
2023-05-19T00:23:57.653Z,6269.00
2023-05-19T00:24:57.781Z,6161.00
2023-05-19T00:25:57.749Z,6153.00
2023-05-19T00:26:57.842Z,6232.00
2023-05-19T00:27:57.839Z,6282.00
2023-05-19T00:28:57.805Z,6305.00
2023-05-19T00:29:57.800Z,6287.00
2023-05-19T00:30:57.821Z,6293.00
2023-05-19T00:31:57.863Z,6327.00
2023-05-19T00:32:57.895Z,6362.00
2023-05-19T00:33:57.902Z,6359.00
2023-05-19T00:34:57.932Z,6307.00
2023-05-19T00:35:57.966Z,6301.00
2023-05-19T00:36:58.015Z,6285.00
2023-05-19T00:37:58.072Z,6319.00
2023-05-19T00:38:58.114Z,6349.00
2023-05-19T00:39:58.182Z,6404.00
2023-05-19T00:40:58.351Z,6508.00
2023-05-19T00:41:58.626Z,6562.00
2023-05-19T00:42:58.718Z,6564.00
2023-05-19T00:43:58.702Z,6425.00
2023-05-19T00:44:58.902Z,6399.00
2023-05-19T00:45:59.156Z,6414.00
2023-05-19T00:46:59.493Z,6433.00
2023-05-19T00:47:59.329Z,6431.00
2023-05-19T00:48:59.208Z,6455.00
2023-05-19T00:49:59.203Z,6454.00
2023-05-19T00:50:59.215Z,6418.00
2023-05-19T00:51:59.190Z,6354.00
2023-05-19T00:52:59.181Z,6263.00
2023-05-19T00:53:59.186Z,6147.00
2023-05-19T00:54:59.168Z,5994.00
2023-05-19T00:55:59.208Z,5994.00
2023-05-19T00:56:59.181Z,5973.00
2023-05-19T00:57:59.260Z,6013.00
2023-05-19T00:58:59.365Z,6011.00
2023-05-19T00:59:59.263Z,6026.00
2023-05-19T01:00:59.310Z,6102.00
2023-05-19T01:01:59.223Z,6088.00
2023-05-19T01:02:59.374Z,6040.00
2023-05-19T01:03:59.550Z,6025.00
2023-05-19T01:04:59.234Z,6103.00
2023-05-19T01:05:59.230Z,6194.00
2023-05-19T01:06:59.243Z,6227.00
2023-05-19T01:07:59.204Z,6153.00
2023-05-19T01:08:59.223Z,6097.00
2023-05-19T01:09:59.248Z,6133.00
2023-05-19T01:10:59.185Z,6090.00
2023-05-19T01:11:59.169Z,6071.00
2023-05-19T01:12:59.151Z,6096.00
2023-05-19T01:13:59.149Z,6137.00
2023-05-19T01:14:59.125Z,6203.00
2023-05-19T01:15:59.149Z,6242.00
2023-05-19T01:16:59.134Z,6259.00
2023-05-19T01:17:59.114Z,6215.00
2023-05-19T01:18:59.173Z,6240.00
2023-05-19T01:19:59.084Z,6394.00
2023-05-19T01:20:59.096Z,6554.00
2023-05-19T01:21:59.092Z,6691.00
2023-05-19T01:22:59.040Z,6758.00
2023-05-19T01:23:59.076Z,6794.00
2023-05-19T01:24:59.019Z,6759.00
2023-05-19T01:25:58.980Z,6755.00
2023-05-19T01:26:59.002Z,6802.00
2023-05-19T01:27:59.025Z,6866.00
2023-05-19T01:28:59.068Z,6808.00
2023-05-19T01:29:59.103Z,6746.00
2023-05-19T01:30:59.177Z,6614.00
2023-05-19T01:31:59.250Z,6573.00
2023-05-19T01:32:59.300Z,6521.00
2023-05-19T01:33:59.317Z,6404.00
2023-05-19T01:34:59.337Z,6340.00
2023-05-19T01:35:59.376Z,6284.00
2023-05-19T01:36:59.447Z,6253.00
2023-05-19T01:37:59.516Z,6254.00
2023-05-19T01:38:59.552Z,6263.00
2023-05-19T01:39:59.643Z,6314.00
2023-05-19T01:40:59.665Z,6348.00
2023-05-19T01:41:59.724Z,6453.00
2023-05-19T01:42:59.785Z,6501.00
2023-05-19T01:43:59.856Z,6555.00
2023-05-19T01:44:59.901Z,6589.00
2023-05-19T01:46:00.032Z,6644.00
2023-05-19T01:47:00.060Z,6659.00
2023-05-19T01:48:00.178Z,6742.00
2023-05-19T01:49:00.120Z,6767.00
2023-05-19T01:50:00.202Z,6766.00
2023-05-19T01:51:00.374Z,6676.00
2023-05-19T01:52:00.536Z,6705.00
2023-05-19T01:53:00.709Z,6720.00
2023-05-19T01:54:00.918Z,6602.00
2023-05-19T01:55:01.097Z,6507.00
2023-05-19T01:56:01.232Z,6359.00
2023-05-19T01:57:01.472Z,6312.00
2023-05-19T01:58:01.571Z,6303.00
2023-05-19T01:59:01.739Z,6352.00
2023-05-19T02:00:01.907Z,6297.00
2023-05-19T02:01:02.099Z,6290.00
2023-05-19T02:02:02.324Z,6306.00
2023-05-19T02:03:02.570Z,6317.00
2023-05-19T02:04:02.793Z,6286.00
2023-05-19T02:05:02.928Z,6319.00
2023-05-19T02:06:03.089Z,6264.00
2023-05-19T02:07:03.249Z,6193.00
2023-05-19T02:08:03.481Z,6176.00
2023-05-19T02:09:03.639Z,6206.00
2023-05-19T02:10:03.822Z,6277.00
2023-05-19T02:11:03.925Z,6358.00
2023-05-19T02:12:04.122Z,6417.00
2023-05-19T02:13:04.338Z,6505.00
2023-05-19T02:14:04.471Z,6522.00
2023-05-19T02:15:04.778Z,6456.00
2023-05-19T02:16:04.870Z,6438.00
2023-05-19T02:17:05.043Z,6484.00
2023-05-19T02:18:05.295Z,6505.00
2023-05-19T02:19:05.332Z,6518.00
2023-05-19T02:20:05.643Z,6431.00
2023-05-19T02:21:05.747Z,6306.00
2023-05-19T02:22:06.054Z,6252.00
2023-05-19T02:23:06.124Z,6175.00
2023-05-19T02:24:06.353Z,6219.00
2023-05-19T02:25:06.473Z,6256.00
2023-05-19T02:26:06.644Z,6173.00
2023-05-19T02:27:06.800Z,6014.00
2023-05-19T02:28:06.968Z,5906.00
2023-05-19T02:29:07.162Z,5896.00
2023-05-19T02:30:07.368Z,5961.00
2023-05-19T02:31:07.482Z,5975.00
2023-05-19T02:32:07.756Z,5950.00
2023-05-19T02:33:07.834Z,5978.00
2023-05-19T02:34:08.028Z,5986.00
2023-05-19T02:35:08.125Z,6009.00
2023-05-19T02:36:08.295Z,6016.00
2023-05-19T02:37:08.406Z,5983.00
2023-05-19T02:38:08.585Z,5923.00
2023-05-19T02:39:08.769Z,5949.00
2023-05-19T02:40:08.954Z,6056.00
2023-05-19T02:41:09.132Z,6102.00
2023-05-19T02:42:09.346Z,6117.00
2023-05-19T02:43:09.520Z,5994.00
2023-05-19T02:44:09.710Z,5905.00
2023-05-19T02:45:09.915Z,5928.00
2023-05-19T02:46:10.142Z,5911.00
2023-05-19T02:47:10.282Z,5810.00
2023-05-19T02:48:10.521Z,5778.00
2023-05-19T02:49:10.781Z,5874.00
2023-05-19T02:50:10.864Z,5908.00
2023-05-19T02:51:11.039Z,5944.00
2023-05-19T02:52:11.294Z,5908.00
2023-05-19T02:53:11.399Z,5907.00
2023-05-19T02:54:11.586Z,5984.00
2023-05-19T02:55:11.726Z,6075.00
2023-05-19T02:56:11.920Z,6178.00
2023-05-19T02:57:12.095Z,6176.00
2023-05-19T02:58:12.226Z,6219.00
2023-05-19T02:59:12.411Z,6241.00
2023-05-19T03:00:12.518Z,6185.00
2023-05-19T03:01:12.684Z,6141.00
2023-05-19T03:02:12.898Z,6205.00
2023-05-19T03:03:13.057Z,6279.00
2023-05-19T03:04:13.139Z,6353.00
2023-05-19T03:05:13.304Z,6465.00
2023-05-19T03:06:13.498Z,6432.00
2023-05-19T03:07:13.687Z,6401.00
2023-05-19T03:08:13.799Z,6369.00
2023-05-19T03:09:14.007Z,6277.00
2023-05-19T03:10:14.151Z,6193.00
2023-05-19T03:11:14.343Z,6235.00
2023-05-19T03:12:14.479Z,6247.00
2023-05-19T03:13:14.645Z,6185.00
2023-05-19T03:14:14.847Z,6106.00
2023-05-19T03:15:14.959Z,6081.00
2023-05-19T03:16:15.126Z,6038.00
2023-05-19T03:17:15.282Z,5993.00
2023-05-19T03:18:15.473Z,5986.00
2023-05-19T03:19:15.596Z,6003.00
2023-05-19T03:20:15.745Z,6017.00
2023-05-19T03:21:15.913Z,6038.00
2023-05-19T03:22:16.069Z,6051.00
2023-05-19T03:23:16.251Z,6082.00
2023-05-19T03:24:16.403Z,6162.00
2023-05-19T03:25:16.558Z,6235.00
2023-05-19T03:26:16.691Z,6295.00
2023-05-19T03:27:16.842Z,6343.00
2023-05-19T03:28:17.013Z,6358.00
2023-05-19T03:29:17.129Z,6381.00
2023-05-19T03:30:17.281Z,6419.00
2023-05-19T03:31:17.477Z,6431.00
2023-05-19T03:32:17.668Z,6435.00
2023-05-19T03:33:17.923Z,6442.00
2023-05-19T03:34:17.894Z,6441.00
2023-05-19T03:35:18.042Z,6377.00
2023-05-19T03:36:18.220Z,6321.00
2023-05-19T03:37:18.385Z,6162.00
2023-05-19T03:38:18.563Z,5981.00
2023-05-19T03:39:18.719Z,5918.00
2023-05-19T03:40:18.899Z,5928.00
2023-05-19T03:41:19.046Z,5944.00
2023-05-19T03:42:19.200Z,5934.00
2023-05-19T03:43:19.370Z,5921.00
2023-05-19T03:44:19.538Z,5994.00
2023-05-19T03:45:19.712Z,6013.00
2023-05-19T03:46:19.976Z,6110.00
2023-05-19T03:47:20.049Z,6145.00
2023-05-19T03:48:21.397Z,6177.00
2023-05-19T03:49:20.312Z,6175.00
2023-05-19T03:50:20.339Z,6211.00
2023-05-19T03:51:20.433Z,6211.00
2023-05-19T03:52:20.426Z,6210.00
2023-05-19T03:53:20.485Z,6220.00
2023-05-19T03:54:20.557Z,6240.00
2023-05-19T03:55:20.571Z,6236.00
2023-05-19T03:56:20.619Z,6163.00
2023-05-19T03:57:20.692Z,6131.00
2023-05-19T03:58:20.735Z,6070.00
2023-05-19T03:59:20.785Z,6114.00
2023-05-19T04:00:20.838Z,6178.00
2023-05-19T04:01:20.902Z,6167.00
2023-05-19T04:02:20.965Z,6157.00
2023-05-19T04:03:21.254Z,6173.00
2023-05-19T04:04:21.097Z,6190.00
2023-05-19T04:05:21.116Z,6145.00
2023-05-19T04:06:21.189Z,6052.00
2023-05-19T04:07:21.217Z,6051.00
2023-05-19T04:08:21.387Z,6114.00
2023-05-19T04:09:21.548Z,6124.00
2023-05-19T04:10:21.854Z,6196.00
2023-05-19T04:11:21.915Z,6239.00
2023-05-19T04:12:22.144Z,6237.00
2023-05-19T04:13:22.230Z,6199.00
2023-05-19T04:14:22.367Z,6220.00
2023-05-19T04:15:22.544Z,6203.00
2023-05-19T04:16:22.814Z,6219.00
2023-05-19T04:17:22.895Z,6203.00
2023-05-19T04:18:23.066Z,6207.00
2023-05-19T04:19:23.351Z,6183.00
2023-05-19T04:20:23.387Z,6241.00
2023-05-19T04:21:23.578Z,6241.00
2023-05-19T04:22:23.762Z,6247.00
2023-05-19T04:23:23.957Z,6309.00
2023-05-19T04:24:24.154Z,6320.00
2023-05-19T04:25:24.357Z,6319.00
2023-05-19T04:26:24.521Z,6271.00
2023-05-19T04:27:24.715Z,6250.00
2023-05-19T04:28:24.880Z,6196.00
2023-05-19T04:29:25.034Z,6159.00
2023-05-19T04:30:25.229Z,6187.00
2023-05-19T04:31:25.411Z,6177.00
2023-05-19T04:32:25.683Z,6145.00
2023-05-19T04:33:25.744Z,6156.00
2023-05-19T04:34:25.902Z,6099.00
2023-05-19T04:35:26.078Z,6141.00
2023-05-19T04:36:26.244Z,6133.00
2023-05-19T04:37:26.434Z,6145.00
2023-05-19T04:38:26.640Z,6103.00
2023-05-19T04:39:26.835Z,6082.00
2023-05-19T04:40:27.017Z,6096.00
2023-05-19T04:41:27.160Z,5995.00
2023-05-19T04:42:27.316Z,5982.00
2023-05-19T04:43:27.479Z,5971.00
2023-05-19T04:44:27.651Z,5894.00
2023-05-19T04:45:27.823Z,5808.00
2023-05-19T04:46:27.989Z,5726.00
2023-05-19T04:47:28.342Z,5681.00
2023-05-19T04:48:28.257Z,5625.00
2023-05-19T04:49:28.402Z,5636.00
2023-05-19T04:50:28.602Z,5651.00
2023-05-19T04:51:30.482Z,5667.00
2023-05-19T04:52:28.738Z,5713.00
2023-05-19T04:53:28.771Z,5717.00
2023-05-19T04:54:28.835Z,5685.00
2023-05-19T04:55:28.949Z,5717.00
2023-05-19T04:56:28.954Z,5736.00
2023-05-19T04:57:28.932Z,5770.00
2023-05-19T04:58:28.970Z,5813.00
2023-05-19T04:59:29.018Z,5825.00
2023-05-19T05:00:29.064Z,5791.00
2023-05-19T05:01:29.118Z,5813.00
2023-05-19T05:02:29.343Z,5903.00
2023-05-19T05:03:29.355Z,5969.00
2023-05-19T05:04:29.247Z,6019.00
2023-05-19T05:05:29.323Z,5985.00
2023-05-19T05:06:29.340Z,5981.00
2023-05-19T05:07:31.678Z,6006.00
2023-05-19T05:08:29.334Z,5957.00
2023-05-19T05:09:29.344Z,5927.00
2023-05-19T05:10:29.340Z,5881.00
2023-05-19T05:11:29.325Z,5879.00
2023-05-19T05:12:29.301Z,5867.00
2023-05-19T05:13:29.324Z,5781.00
2023-05-19T05:14:29.316Z,5764.00
2023-05-19T05:15:29.285Z,5759.00
2023-05-19T05:16:29.368Z,5758.00
2023-05-19T05:17:29.353Z,5841.00
2023-05-19T05:18:29.320Z,5892.00
2023-05-19T05:19:29.360Z,5893.00
2023-05-19T05:20:29.269Z,5840.00
2023-05-19T05:21:29.256Z,5809.00
2023-05-19T05:22:29.292Z,5839.00
2023-05-19T05:23:29.298Z,5875.00
2023-05-19T05:24:29.294Z,5888.00
2023-05-19T05:25:29.283Z,5912.00
2023-05-19T05:26:29.287Z,5926.00
2023-05-19T05:27:29.372Z,5894.00
2023-05-19T05:28:29.343Z,5867.00
2023-05-19T05:29:29.276Z,5863.00
2023-05-19T05:30:29.310Z,5907.00
2023-05-19T05:31:29.272Z,5892.00
2023-05-19T05:32:29.336Z,5897.00
2023-05-19T05:33:29.318Z,5864.00
2023-05-19T05:34:29.250Z,5897.00
2023-05-19T05:35:29.289Z,5891.00
2023-05-19T05:36:29.262Z,5910.00
2023-05-19T05:37:29.302Z,5937.00
2023-05-19T05:38:29.270Z,5874.00
2023-05-19T05:39:29.278Z,5863.00
2023-05-19T05:40:29.299Z,5885.00
2023-05-19T05:41:29.343Z,5838.00
2023-05-19T05:42:29.868Z,5866.00
2023-05-19T05:43:29.290Z,5878.00
2023-05-19T05:44:29.268Z,5810.00
2023-05-19T05:45:29.265Z,5822.00
2023-05-19T05:46:29.322Z,5721.00
2023-05-19T05:47:29.250Z,5671.00
2023-05-19T05:48:29.221Z,5646.00
2023-05-19T05:49:29.228Z,5571.00
2023-05-19T05:50:29.223Z,5561.00
2023-05-19T05:51:29.230Z,5585.00
2023-05-19T05:52:29.224Z,5630.00
2023-05-19T05:53:29.235Z,5632.00
2023-05-19T05:54:29.313Z,5656.00
2023-05-19T05:55:29.337Z,5684.00
2023-05-19T05:56:29.402Z,5679.00
2023-05-19T05:57:29.560Z,5704.00
2023-05-19T05:58:29.721Z,5739.00
2023-05-19T05:59:29.874Z,5747.00
2023-05-19T06:00:30.165Z,5728.00
2023-05-19T06:01:30.219Z,5660.00
2023-05-19T06:02:30.447Z,5604.00
2023-05-19T06:03:30.553Z,5595.00
2023-05-19T06:04:30.663Z,5580.00
2023-05-19T06:05:30.905Z,5543.00
2023-05-19T06:06:31.036Z,5538.00
2023-05-19T06:07:31.158Z,5556.00
2023-05-19T06:08:31.437Z,5579.00
2023-05-19T06:09:31.534Z,5553.00
2023-05-19T06:10:32.081Z,5526.00
2023-05-19T06:11:31.834Z,5476.00
2023-05-19T06:12:31.840Z,5516.00
2023-05-19T06:13:31.849Z,5466.00
2023-05-19T06:14:31.869Z,5381.00
2023-05-19T06:15:31.942Z,5365.00
2023-05-19T06:16:32.016Z,5200.00
2023-05-19T06:17:31.979Z,5056.00
2023-05-19T06:18:31.957Z,4895.00
2023-05-19T06:19:32.002Z,4751.00
2023-05-19T06:20:32.352Z,4682.00
2023-05-19T06:21:32.105Z,4618.00
2023-05-19T06:22:32.152Z,4647.00
2023-05-19T06:23:32.194Z,4708.00
2023-05-19T06:24:32.212Z,4782.00
2023-05-19T06:25:32.589Z,4781.00
2023-05-19T06:26:32.278Z,4692.00
2023-05-19T06:27:34.549Z,4473.00
2023-05-19T06:28:32.369Z,4296.00
2023-05-19T06:29:32.393Z,4171.00
2023-05-19T06:30:32.566Z,4143.00
2023-05-19T06:31:32.528Z,4232.00
2023-05-19T06:32:32.570Z,4334.00
2023-05-19T06:33:33.264Z,4440.00
2023-05-19T06:34:32.543Z,4455.00
2023-05-19T06:35:32.585Z,4340.00
2023-05-19T06:36:32.641Z,4262.00
2023-05-19T06:37:32.678Z,4347.00
2023-05-19T06:38:32.641Z,4404.00
2023-05-19T06:39:32.659Z,4466.00
2023-05-19T06:40:32.853Z,4458.00
2023-05-19T06:41:32.696Z,4443.00
2023-05-19T06:42:32.715Z,4335.00
2023-05-19T06:43:32.708Z,4247.00
2023-05-19T06:44:32.743Z,4133.00
2023-05-19T06:45:32.779Z,4059.00
2023-05-19T06:46:32.860Z,4028.00
2023-05-19T06:47:32.937Z,4004.00
2023-05-19T06:48:32.898Z,3946.00
2023-05-19T06:49:33.054Z,3928.00
2023-05-19T06:50:33.308Z,3911.00
2023-05-19T06:51:33.333Z,3953.00
2023-05-19T06:52:33.448Z,4006.00
2023-05-19T06:53:33.610Z,4122.00
2023-05-19T06:54:33.752Z,4252.00
2023-05-19T06:55:37.123Z,4388.00
2023-05-19T06:56:34.847Z,4392.00
2023-05-19T06:57:33.840Z,4404.00
2023-05-19T06:58:33.813Z,4402.00
2023-05-19T06:59:33.894Z,4305.00
2023-05-19T07:00:33.972Z,4246.00
2023-05-19T07:01:33.858Z,4135.00
2023-05-19T07:02:33.852Z,3907.00
2023-05-19T07:03:33.931Z,3770.00
2023-05-19T07:04:33.769Z,3706.00
2023-05-19T07:05:33.754Z,3696.00
2023-05-19T07:06:33.713Z,3627.00
2023-05-19T07:07:33.707Z,3574.00
2023-05-19T07:08:33.694Z,3553.00
2023-05-19T07:09:33.682Z,3631.00
2023-05-19T07:10:33.862Z,3616.00
2023-05-19T07:11:33.672Z,3465.00
2023-05-19T07:12:33.644Z,3406.00
2023-05-19T07:13:33.641Z,3439.00
2023-05-19T07:14:33.621Z,3604.00
2023-05-19T07:15:33.630Z,4487.00
2023-05-19T07:16:33.651Z,5222.00
2023-05-19T07:17:33.658Z,5233.00
2023-05-19T07:18:33.614Z,4929.00
2023-05-19T07:19:33.605Z,4719.00
2023-05-19T07:20:33.785Z,4568.00
2023-05-19T07:21:33.660Z,4510.00
2023-05-19T07:22:33.601Z,4472.00
2023-05-19T07:23:33.601Z,4383.00
2023-05-19T07:24:33.580Z,4263.00
2023-05-19T07:25:33.562Z,4252.00
2023-05-19T07:26:33.571Z,4338.00
2023-05-19T07:27:33.564Z,4398.00
2023-05-19T07:28:33.543Z,4494.00
2023-05-19T07:29:33.616Z,4537.00
2023-05-19T07:30:33.763Z,4456.00
2023-05-19T07:31:33.607Z,4348.00
2023-05-19T07:32:33.730Z,4140.00
2023-05-19T07:33:33.576Z,4083.00
2023-05-19T07:34:33.581Z,4122.00
2023-05-19T07:35:33.586Z,4170.00
2023-05-19T07:36:33.619Z,4093.00
2023-05-19T07:37:33.683Z,4151.00
2023-05-19T07:38:33.761Z,4105.00
2023-05-19T07:39:33.793Z,4016.00
2023-05-19T07:40:33.919Z,3879.00
2023-05-19T07:41:34.453Z,3804.00
2023-05-19T07:42:33.917Z,3876.00
2023-05-19T07:43:34.001Z,4028.00
2023-05-19T07:44:33.991Z,4122.00
2023-05-19T07:45:34.076Z,4057.00
2023-05-19T07:46:34.077Z,3976.00
2023-05-19T07:47:34.009Z,3938.00
2023-05-19T07:48:34.012Z,3820.00
2023-05-19T07:49:34.028Z,3630.00
2023-05-19T07:50:34.269Z,3572.00
2023-05-19T07:51:34.101Z,3688.00
2023-05-19T07:52:34.112Z,3735.00
2023-05-19T07:53:34.157Z,3531.00
2023-05-19T07:54:34.184Z,3537.00
2023-05-19T07:55:34.230Z,3582.00
2023-05-19T07:56:34.253Z,3450.00
2023-05-19T07:57:34.268Z,3233.00
2023-05-19T07:58:34.292Z,3206.00
2023-05-19T07:59:34.426Z,3247.00
2023-05-19T08:00:34.526Z,3220.00
2023-05-19T08:01:34.337Z,3369.00
2023-05-19T08:02:34.371Z,3233.00
2023-05-19T08:03:34.369Z,3177.00
2023-05-19T08:04:34.260Z,3251.00
2023-05-19T08:05:34.301Z,3362.00
2023-05-19T08:06:34.228Z,3368.00
2023-05-19T08:07:34.212Z,3360.00
2023-05-19T08:08:34.212Z,3437.00
2023-05-19T08:09:34.281Z,3407.00
2023-05-19T08:10:34.674Z,3211.00
2023-05-19T08:11:34.343Z,2849.00
2023-05-19T08:12:34.302Z,2805.00
2023-05-19T08:13:34.326Z,2885.00
2023-05-19T08:14:34.317Z,2913.00
2023-05-19T08:15:34.400Z,2934.00
2023-05-19T08:16:34.352Z,3060.00
2023-05-19T08:17:34.372Z,3086.00
2023-05-19T08:18:34.359Z,3117.00
2023-05-19T08:19:34.405Z,3182.00
2023-05-19T08:20:34.613Z,3069.00
2023-05-19T08:21:34.401Z,3053.00
2023-05-19T08:22:34.404Z,2951.00
2023-05-19T08:23:34.431Z,2818.00
2023-05-19T08:24:34.444Z,2874.00
2023-05-19T08:25:34.412Z,3002.00
2023-05-19T08:26:36.915Z,3061.00
2023-05-19T08:27:34.345Z,3077.00
2023-05-19T08:28:34.294Z,2953.00
2023-05-19T08:29:34.264Z,2860.00
2023-05-19T08:30:34.458Z,2574.00
2023-05-19T08:31:34.242Z,2460.00
2023-05-19T08:32:34.140Z,2369.00
2023-05-19T08:33:34.083Z,2213.00
2023-05-19T08:34:34.046Z,2125.00
2023-05-19T08:35:34.041Z,1996.00
2023-05-19T08:36:34.324Z,1977.00
2023-05-19T08:37:34.249Z,1921.00
2023-05-19T08:38:33.866Z,1924.00
2023-05-19T08:39:33.825Z,1941.00
2023-05-19T08:40:34.112Z,1967.00
2023-05-19T08:41:33.738Z,2104.00
2023-05-19T08:42:33.701Z,2199.00
2023-05-19T08:43:33.694Z,2330.00
2023-05-19T08:44:33.599Z,2415.00
2023-05-19T08:45:33.732Z,2459.00
2023-05-19T08:46:33.585Z,2349.00
2023-05-19T08:47:33.509Z,2165.00
2023-05-19T08:48:33.367Z,2045.00
2023-05-19T08:49:33.309Z,2170.00
2023-05-19T08:50:33.501Z,2255.00
2023-05-19T08:51:33.186Z,2311.00
2023-05-19T08:52:33.128Z,2383.00
2023-05-19T08:53:34.644Z,2251.00
2023-05-19T08:54:33.010Z,2202.00
2023-05-19T08:55:33.183Z,2285.00
2023-05-19T08:56:32.905Z,2221.00
2023-05-19T08:57:32.890Z,2080.00
2023-05-19T08:58:32.832Z,2031.00
2023-05-19T08:59:32.805Z,1995.00
2023-05-19T09:00:32.923Z,1894.00
2023-05-19T09:01:32.783Z,1898.00
2023-05-19T09:02:32.780Z,1864.00
2023-05-19T09:03:32.781Z,1845.00
2023-05-19T09:04:32.730Z,1864.00
2023-05-19T09:05:32.768Z,1917.00
2023-05-19T09:06:32.535Z,2097.00
2023-05-19T09:07:32.477Z,2112.00
2023-05-19T09:08:32.417Z,1886.00
2023-05-19T09:09:32.365Z,1777.00
2023-05-19T09:10:32.319Z,1824.00
2023-05-19T09:11:32.823Z,1822.00
2023-05-19T09:12:32.225Z,1859.00
2023-05-19T09:13:32.218Z,1883.00
2023-05-19T09:14:32.209Z,2121.00
2023-05-19T09:15:32.347Z,2193.00
2023-05-19T09:16:32.222Z,2086.00
2023-05-19T09:17:32.176Z,2032.00
2023-05-19T09:18:32.164Z,1882.00
2023-05-19T09:19:32.296Z,1812.00
2023-05-19T09:20:32.130Z,1871.00
2023-05-19T09:21:32.145Z,1720.00
2023-05-19T09:22:32.146Z,1679.00
2023-05-19T09:23:32.255Z,1488.00
2023-05-19T09:24:32.177Z,1479.00
2023-05-19T09:25:32.318Z,1257.00
2023-05-19T09:26:32.194Z,1217.00
2023-05-19T09:27:32.170Z,1185.00
2023-05-19T09:28:32.159Z,1171.00
2023-05-19T09:29:32.200Z,1391.00
2023-05-19T09:30:32.139Z,1423.00
2023-05-19T09:31:32.131Z,1418.00
2023-05-19T09:32:32.115Z,1195.00
2023-05-19T09:33:32.050Z,1066.00
2023-05-19T09:34:32.045Z,1294.00
2023-05-19T09:35:32.315Z,1371.00
2023-05-19T09:36:32.333Z,1169.00
2023-05-19T09:37:32.413Z,1095.00
2023-05-19T09:38:32.542Z,1072.00
2023-05-19T09:39:32.702Z,1313.00
2023-05-19T09:40:32.793Z,1403.00
2023-05-19T09:41:32.915Z,1429.00
2023-05-19T09:42:33.127Z,1394.00
2023-05-19T09:43:32.928Z,1426.00
2023-05-19T09:44:33.206Z,1675.00
2023-05-19T09:45:33.470Z,1832.00
2023-05-19T09:46:33.274Z,1896.00
2023-05-19T09:47:33.153Z,1990.00
2023-05-19T09:48:33.044Z,1887.00
2023-05-19T09:49:33.127Z,1812.00
2023-05-19T09:50:32.912Z,1899.00
2023-05-19T09:51:32.860Z,1871.00
2023-05-19T09:52:32.745Z,1893.00
2023-05-19T09:53:32.738Z,1847.00
2023-05-19T09:54:32.712Z,1843.00
2023-05-19T09:55:32.867Z,1878.00
2023-05-19T09:56:32.445Z,1805.00
2023-05-19T09:57:32.325Z,1748.00
2023-05-19T09:58:32.239Z,1798.00
2023-05-19T09:59:33.775Z,1726.00
2023-05-19T10:00:32.170Z,1697.00
2023-05-19T10:01:32.025Z,1551.00
2023-05-19T10:02:31.943Z,1362.00
2023-05-19T10:03:31.817Z,1083.00
2023-05-19T10:04:31.789Z,1070.00
2023-05-19T10:05:31.802Z,1021.00
2023-05-19T10:06:31.558Z,1155.00
2023-05-19T10:07:31.490Z,1409.00
2023-05-19T10:08:31.394Z,1331.00
2023-05-19T10:09:31.306Z,1602.00
2023-05-19T10:10:31.273Z,1718.00
2023-05-19T10:11:31.142Z,1648.00
2023-05-19T10:12:31.052Z,1599.00
2023-05-19T10:13:31.069Z,1529.00
2023-05-19T10:14:30.870Z,1634.00
2023-05-19T10:15:30.984Z,1651.00
2023-05-19T10:16:30.743Z,1812.00
2023-05-19T10:17:30.651Z,1771.00
2023-05-19T10:18:30.606Z,1589.00
2023-05-19T10:19:30.507Z,1609.00
2023-05-19T10:20:30.897Z,1856.00
2023-05-19T10:21:30.394Z,2071.00
2023-05-19T10:22:30.343Z,1903.00
2023-05-19T10:23:30.320Z,1983.00
2023-05-19T10:24:30.287Z,2173.00
2023-05-19T10:25:30.205Z,2146.00
2023-05-19T10:26:30.145Z,2224.00
2023-05-19T10:27:30.074Z,2189.00
2023-05-19T10:28:29.995Z,2125.00
2023-05-19T10:29:29.931Z,1885.00
2023-05-19T10:30:29.862Z,1981.00
2023-05-19T10:31:29.896Z,2204.00
2023-05-19T10:32:29.981Z,2357.00
2023-05-19T10:33:29.835Z,2315.00
2023-05-19T10:34:29.960Z,2336.00
2023-05-19T10:35:31.095Z,2487.00
2023-05-19T10:36:30.048Z,2512.00
2023-05-19T10:37:30.008Z,2476.00
2023-05-19T10:38:29.954Z,2568.00
2023-05-19T10:39:29.843Z,2615.00
2023-05-19T10:40:29.849Z,2604.00
2023-05-19T10:41:29.746Z,2490.00
2023-05-19T10:42:29.711Z,2220.00
2023-05-19T10:43:29.701Z,2280.00
2023-05-19T10:44:29.618Z,2274.00
2023-05-19T10:45:29.594Z,2252.00
2023-05-19T10:46:29.546Z,2252.00
2023-05-19T10:47:29.638Z,2160.00
2023-05-19T10:48:29.747Z,2062.00
2023-05-19T10:49:29.872Z,1998.00
2023-05-19T10:50:30.039Z,2061.00
2023-05-19T10:51:30.173Z,1915.00
2023-05-19T10:52:30.358Z,1731.00
2023-05-19T10:53:30.483Z,1447.00
2023-05-19T10:54:30.620Z,1116.00
2023-05-19T10:55:30.951Z,841.00
2023-05-19T10:56:30.919Z,849.00
2023-05-19T10:57:31.076Z,936.00
2023-05-19T10:58:31.157Z,1193.00
2023-05-19T10:59:31.322Z,1409.00
2023-05-19T11:00:31.419Z,1355.00
2023-05-19T11:01:31.588Z,1373.00
2023-05-19T11:02:31.713Z,1396.00
2023-05-19T11:03:31.870Z,1313.00
2023-05-19T11:04:31.977Z,1362.00
2023-05-19T11:05:32.267Z,1416.00
2023-05-19T11:06:32.208Z,1447.00
2023-05-19T11:07:32.362Z,1416.00
2023-05-19T11:08:32.519Z,1391.00
2023-05-19T11:09:40.071Z,1437.00
2023-05-19T11:10:33.564Z,1395.00
2023-05-19T11:11:33.309Z,1218.00
2023-05-19T11:12:32.372Z,1036.00
2023-05-19T11:13:32.293Z,953.00
2023-05-19T11:14:32.201Z,1083.00
2023-05-19T11:15:32.355Z,1104.00
2023-05-19T11:16:32.008Z,1107.00
2023-05-19T11:17:33.134Z,1207.00
2023-05-19T11:18:31.764Z,1285.00
2023-05-19T11:19:31.741Z,1326.00
2023-05-19T11:20:31.653Z,1242.00
2023-05-19T11:21:31.757Z,1205.00
2023-05-19T11:22:31.586Z,1290.00
2023-05-19T11:23:33.417Z,1308.00
2023-05-19T11:24:31.569Z,976.00
2023-05-19T11:25:31.622Z,905.00
2023-05-19T11:26:31.373Z,831.00
2023-05-19T11:27:31.358Z,898.00
2023-05-19T11:28:31.141Z,930.00
2023-05-19T11:29:31.934Z,1036.00
2023-05-19T11:30:30.936Z,1161.00
2023-05-19T11:31:30.849Z,1316.00
2023-05-19T11:32:30.913Z,1262.00
2023-05-19T11:33:30.689Z,1140.00
2023-05-19T11:34:30.590Z,1042.00
2023-05-19T11:35:30.692Z,1092.00
2023-05-19T11:36:30.386Z,1071.00
2023-05-19T11:37:30.276Z,973.00
2023-05-19T11:38:30.406Z,784.00
2023-05-19T11:39:30.059Z,875.00
2023-05-19T11:40:29.959Z,1091.00
2023-05-19T11:41:29.823Z,1167.00
2023-05-19T11:42:29.736Z,1156.00
2023-05-19T11:43:29.693Z,956.00
2023-05-19T11:44:29.815Z,958.00
2023-05-19T11:45:29.947Z,1069.00
2023-05-19T11:46:30.133Z,1102.00
2023-05-19T11:47:32.033Z,987.00
2023-05-19T11:48:31.238Z,827.00
2023-05-19T11:49:30.052Z,646.00
2023-05-19T11:50:29.937Z,584.00
2023-05-19T11:51:29.849Z,638.00
2023-05-19T11:52:29.745Z,796.00
2023-05-19T11:53:29.683Z,812.00
2023-05-19T11:54:29.646Z,833.00
2023-05-19T11:55:29.623Z,760.00
2023-05-19T11:56:29.573Z,872.00
2023-05-19T11:57:29.578Z,991.00
2023-05-19T11:58:29.659Z,855.00
2023-05-19T11:59:29.766Z,1018.00
2023-05-19T12:00:29.965Z,870.00
2023-05-19T12:01:30.014Z,716.00
2023-05-19T12:02:30.212Z,589.00
2023-05-19T12:03:30.466Z,590.00
2023-05-19T12:04:30.461Z,518.00
2023-05-19T12:05:30.647Z,554.00
2023-05-19T12:06:30.492Z,589.00
2023-05-19T12:07:30.452Z,608.00